createdAt,value
2018-09-17T06:11:26.258Z,101023.65
2018-09-17T06:13:56.392Z,101026.71
2018-09-17T06:16:26.358Z,101021.54
2018-09-17T06:18:56.329Z,101019.97
2018-09-17T06:21:26.352Z,101027.56
2018-09-17T06:23:56.383Z,101033.86
2018-09-17T06:26:26.473Z,101044.75
2018-09-17T06:28:58.503Z,101046.93
2018-09-17T06:31:28.648Z,101049.38
2018-09-17T06:33:58.913Z,101048.16
2018-09-17T06:36:28.939Z,101047.40
2018-09-17T06:38:59.961Z,101053.09
2018-09-17T06:41:30.086Z,101057.56
2018-09-17T06:44:00.128Z,101062.20
2018-09-17T06:49:05.287Z,101073.90
2018-09-17T06:51:35.347Z,101073.17
2018-09-17T06:54:05.427Z,101080.47
2018-09-17T06:56:35.501Z,101085.19
2018-09-17T06:59:05.543Z,101086.24
2018-09-17T07:01:35.590Z,101095.02
2018-09-17T07:04:05.566Z,101091.56
2018-09-17T07:06:35.540Z,101098.48
2018-09-17T07:09:08.177Z,101095.71
2018-09-17T07:11:38.296Z,101101.48
2018-09-17T07:14:08.434Z,101098.41
2018-09-17T07:16:38.848Z,101092.98
2018-09-17T07:19:08.814Z,101095.27
2018-09-17T07:21:38.815Z,101094.79
2018-09-17T07:24:08.872Z,101094.30
2018-09-17T07:26:38.867Z,101095.66
2018-09-17T07:29:09.085Z,101092.87
2018-09-17T07:31:39.021Z,101086.10
2018-09-17T07:34:08.951Z,101085.94
2018-09-17T07:36:39.975Z,101085.31
2018-09-17T07:39:11.727Z,101084.89
2018-09-17T07:41:41.762Z,101072.31
2018-09-17T07:44:11.711Z,101078.49
2018-09-17T07:46:41.714Z,101077.08
2018-09-17T07:49:11.636Z,101074.69
2018-09-17T07:51:41.634Z,101069.68
2018-09-17T07:54:11.655Z,101066.31
2018-09-17T07:56:42.669Z,101068.69
2018-09-17T07:59:12.679Z,101056.72
2018-09-17T08:01:42.710Z,101056.86
2018-09-17T08:04:12.732Z,101045.66
2018-09-17T08:06:42.717Z,101048.94
2018-09-17T08:09:16.266Z,101048.31
2018-09-17T08:11:46.357Z,101046.45
2018-09-17T08:14:16.446Z,101051.31
2018-09-17T08:16:46.421Z,101044.88
2018-09-17T08:19:16.449Z,101045.75
2018-09-17T08:21:46.431Z,101048.41
2018-09-17T08:24:16.467Z,101048.90
2018-09-17T08:26:46.565Z,101053.94
2018-09-17T08:29:17.558Z,101047.79
2018-09-17T08:31:47.483Z,101046.80
2018-09-17T08:34:17.446Z,101047.42
2018-09-17T08:36:47.424Z,101046.65
2018-09-17T08:39:17.418Z,101021.70
2018-09-17T08:41:48.724Z,101045.83
2018-09-17T08:44:19.730Z,101040.20
2018-09-17T08:46:50.737Z,101040.34
2018-09-17T08:49:20.811Z,101037.90
2018-09-17T08:51:50.793Z,101034.05
2018-09-17T08:54:21.658Z,101027.73
2018-09-17T08:56:56.521Z,101028.85
2018-09-17T08:59:31.638Z,101023.75
2018-09-17T09:02:06.852Z,101018.48
2018-09-17T09:04:41.808Z,101011.54
2018-09-17T09:07:15.783Z,101010.81
2018-09-17T09:09:45.770Z,101012.44
2018-09-17T09:12:20.924Z,101007.87
2018-09-17T09:14:55.178Z,101020.53
2018-09-17T09:17:25.172Z,101018.35
2018-09-17T09:19:55.115Z,101010.59
2018-09-17T09:22:25.414Z,101014.21
2018-09-17T09:24:57.708Z,101016.64
2018-09-17T09:27:27.751Z,101015.84
2018-09-17T09:29:57.831Z,101014.66
2018-09-17T09:32:28.730Z,101012.45
2018-09-17T09:34:58.780Z,101010.23
2018-09-17T09:37:28.766Z,101003.84
2018-09-17T09:39:58.838Z,101004.42
2018-09-17T09:42:28.836Z,100997.81
2018-09-17T09:44:58.827Z,101001.20
2018-09-17T09:47:28.759Z,101005.79
2018-09-17T09:49:58.841Z,100997.73
2018-09-17T09:52:28.924Z,100997.70
2018-09-17T09:54:59.895Z,100991.27
2018-09-17T09:57:29.981Z,100982.37
2018-09-17T10:00:00.019Z,100982.60
2018-09-17T10:02:35.808Z,100975.92
2018-09-17T10:05:06.502Z,100975.06
2018-09-17T10:07:36.496Z,100972.83
2018-09-17T10:11:12.942Z,100974.58
2018-09-17T10:13:47.839Z,100968.63
2018-09-17T10:16:19.746Z,100970.59
2018-09-17T10:18:54.714Z,100967.31
2018-09-17T10:21:25.324Z,100968.02
2018-09-17T10:23:55.414Z,100961.69
2018-09-17T10:26:26.530Z,100958.78
2018-09-17T10:28:56.688Z,100954.66
2018-09-17T10:31:26.808Z,100949.52
2018-09-17T10:33:56.800Z,100942.00
2018-09-17T10:36:26.758Z,100936.88
2018-09-17T10:38:56.622Z,100934.95
2018-09-17T10:41:26.601Z,100935.24
2018-09-17T10:43:58.087Z,100935.37
2018-09-17T10:46:28.383Z,100936.44
2018-09-17T10:48:59.369Z,100938.76
2018-09-17T10:51:29.357Z,100941.70
2018-09-17T10:53:59.425Z,100933.95
2018-09-17T10:56:29.342Z,100936.42
2018-09-17T10:58:59.316Z,100937.73
2018-09-17T11:01:30.176Z,100932.02
2018-09-17T11:04:00.153Z,100923.84
2018-09-17T11:06:30.245Z,100927.38
2018-09-17T11:09:01.658Z,100911.36
2018-09-17T11:11:31.686Z,100915.30
2018-09-17T11:14:02.540Z,100906.34
2018-09-17T11:16:32.316Z,100908.11
2018-09-17T11:19:02.308Z,100907.62
2018-09-17T11:21:32.066Z,100902.08
2018-09-17T11:24:02.090Z,100898.77
2018-09-17T11:26:32.092Z,100895.47
2018-09-17T11:29:02.039Z,100888.15
2018-09-17T11:31:32.028Z,100882.45
2018-09-17T11:34:02.924Z,100888.47
2018-09-17T11:36:32.955Z,100885.38
2018-09-17T11:39:02.884Z,100886.56
2018-09-17T11:41:32.823Z,100881.27
2018-09-17T11:44:02.861Z,100875.80
2018-09-17T11:46:32.862Z,100876.77
2018-09-17T11:49:02.867Z,100877.95
2018-09-17T11:51:32.892Z,100872.66
2018-09-17T11:54:02.924Z,100870.56
2018-09-17T11:56:32.842Z,100869.88
2018-09-17T11:59:02.832Z,100867.59
2018-09-17T12:01:37.741Z,100862.67
2018-09-17T12:04:12.963Z,100855.95
2018-09-17T12:06:47.781Z,100859.68
2018-09-17T12:09:17.921Z,100859.59
2018-09-17T12:11:47.867Z,100857.88
2018-09-17T12:14:18.784Z,100851.72
2018-09-17T12:16:48.659Z,100845.38
2018-09-17T12:19:19.101Z,100841.39
2018-09-17T12:21:49.047Z,100845.30
2018-09-17T12:24:19.057Z,100844.01
2018-09-17T12:26:50.246Z,100842.08
2018-09-17T12:29:20.240Z,100837.14
2018-09-17T12:31:50.206Z,100833.61
2018-09-17T12:34:20.215Z,100835.92
2018-09-17T12:36:50.172Z,100826.58
2018-09-17T12:39:20.110Z,100830.48
2018-09-17T12:41:50.128Z,100829.81
2018-09-17T12:44:20.119Z,100823.45
2018-09-17T12:46:50.108Z,100828.77
2018-09-17T12:49:20.185Z,100822.40
2018-09-17T12:51:51.226Z,100819.64
2018-09-17T12:54:22.855Z,100815.50
2018-09-17T12:56:52.870Z,100809.95
2018-09-17T12:59:22.871Z,100810.66
2018-09-17T13:01:52.832Z,100809.66
2018-09-17T13:04:22.782Z,100804.88
2018-09-17T13:06:52.779Z,100807.20
2018-09-17T13:09:22.786Z,100803.66
2018-09-17T13:11:52.815Z,100798.91
2018-09-17T13:14:22.811Z,100793.95
2018-09-17T13:16:52.785Z,100796.06
2018-09-17T13:19:22.734Z,100785.43
2018-09-17T13:21:52.754Z,100787.38
2018-09-17T13:24:22.733Z,100778.93
2018-09-17T13:26:52.701Z,100776.02
2018-09-17T13:29:22.694Z,100776.54
2018-09-17T13:31:52.748Z,100767.50
2018-09-17T13:34:22.606Z,100769.78
2018-09-17T13:36:52.656Z,100764.98
2018-09-17T13:39:22.680Z,100756.09
2018-09-17T13:41:52.683Z,100758.76
2018-09-17T13:44:22.646Z,100756.81
2018-09-17T13:46:52.880Z,100755.02
2018-09-17T13:49:22.838Z,100748.62
2018-09-17T13:51:52.831Z,100735.13
2018-09-17T13:54:22.839Z,100738.65
2018-09-17T13:56:52.846Z,100733.66
2018-09-17T13:59:22.989Z,100734.34
2018-09-17T14:01:52.998Z,100739.12
2018-09-17T14:04:24.135Z,100743.88
2018-09-17T14:06:54.085Z,100737.13
2018-09-17T14:09:24.052Z,100735.28
2018-09-17T14:11:54.099Z,100727.55
2018-09-17T14:14:24.140Z,100720.97
2018-09-17T14:16:54.181Z,100718.30
2018-09-17T14:19:24.212Z,100718.47
2018-09-17T14:21:54.210Z,100709.96
2018-09-17T14:24:24.226Z,100713.78
2018-09-17T14:26:54.246Z,100700.38
2018-09-17T14:29:24.977Z,100700.72
2018-09-17T14:32:58.648Z,100695.05
2018-09-17T14:35:28.604Z,100686.36
2018-09-17T14:37:58.504Z,100684.94
2018-09-17T14:40:30.346Z,100684.43
2018-09-17T14:43:00.341Z,100688.52
2018-09-17T14:45:30.532Z,100676.32
2018-09-17T14:48:00.584Z,100668.72
2018-09-17T14:50:30.617Z,100670.44
2018-09-17T14:53:00.686Z,100660.61
2018-09-17T14:55:30.670Z,100663.11
2018-09-17T14:58:00.648Z,100659.12
2018-09-17T15:00:30.693Z,100653.58
2018-09-17T15:03:00.696Z,100647.05
2018-09-17T15:05:32.781Z,100647.16
2018-09-17T15:08:03.202Z,100641.61
2018-09-17T15:10:33.242Z,100638.27
2018-09-17T15:13:03.098Z,100633.50
2018-09-17T15:15:32.966Z,100633.16
2018-09-17T15:18:02.588Z,100630.69
2018-09-17T15:20:32.194Z,100629.80
2018-09-17T15:23:01.827Z,100630.83
2018-09-17T15:25:31.442Z,100621.47
2018-09-17T15:28:01.153Z,100623.15
2018-09-17T15:30:30.800Z,100622.63
2018-09-17T15:33:00.448Z,100623.10
2018-09-17T15:35:30.055Z,100621.61
2018-09-17T15:37:59.761Z,100612.42
2018-09-17T15:40:29.409Z,100619.42
2018-09-17T15:42:59.016Z,100614.77
2018-09-17T15:45:28.638Z,100613.27
2018-09-17T15:47:58.240Z,100614.81
2018-09-17T15:50:27.888Z,100606.49
2018-09-17T15:52:57.487Z,100605.25
2018-09-17T15:55:27.127Z,100600.08
2018-09-17T15:57:56.856Z,100596.12
2018-09-17T16:00:26.475Z,100595.97
2018-09-17T16:02:56.825Z,100594.23
2018-09-17T16:05:26.833Z,100590.27
2018-09-17T16:07:57.735Z,100597.57
2018-09-17T16:10:27.756Z,100592.46
2018-09-17T16:12:57.704Z,100594.59
2018-09-17T16:15:27.722Z,100586.19
2018-09-17T16:17:57.724Z,100588.13
2018-09-17T16:20:27.748Z,100595.51
2018-09-17T16:22:57.730Z,100595.39
2018-09-17T16:25:27.773Z,100593.67
2018-09-17T16:27:57.805Z,100594.77
2018-09-17T16:30:27.789Z,100586.19
2018-09-17T16:32:57.806Z,100584.42
2018-09-17T16:35:28.841Z,100583.67
2018-09-17T16:37:59.011Z,100582.92
2018-09-17T16:40:28.998Z,100585.58
2018-09-17T16:42:58.971Z,100582.59
2018-09-17T16:45:30.231Z,100580.19
2018-09-17T16:48:00.248Z,100578.41
2018-09-17T16:50:31.344Z,100573.81
2018-09-17T16:53:01.459Z,100572.84
2018-09-17T16:55:31.470Z,100574.67
2018-09-17T16:58:02.431Z,100569.05
2018-09-17T17:00:32.488Z,100573.48
2018-09-17T17:03:02.516Z,100576.70
2018-09-17T17:05:32.522Z,100583.95
2018-09-17T17:08:02.536Z,100582.92
2018-09-17T17:10:32.657Z,100574.61
2018-09-17T17:13:02.607Z,100572.17
2018-09-17T17:15:32.781Z,100573.35
2018-09-17T17:18:02.840Z,100568.69
2018-09-17T17:20:32.876Z,100570.44
2018-09-17T17:23:02.933Z,100565.11
2018-09-17T17:25:32.992Z,100570.88
2018-09-17T17:28:03.019Z,100568.40
2018-09-17T17:30:33.110Z,100565.53
2018-09-17T17:33:03.184Z,100560.83
2018-09-17T17:35:33.521Z,100559.31
2018-09-17T17:38:03.552Z,100575.66
2018-09-17T17:40:33.724Z,100572.75
2018-09-17T17:43:03.642Z,100570.00
2018-09-17T17:45:33.678Z,100568.30
2018-09-17T17:48:03.771Z,100562.34
2018-09-17T17:50:33.772Z,100572.42
2018-09-17T17:53:03.775Z,100567.84
2018-09-17T17:55:33.800Z,100567.90
2018-09-17T17:58:04.855Z,100572.14
2018-09-17T18:00:34.811Z,100572.14
2018-09-17T18:03:04.872Z,100575.75
2018-09-17T18:05:34.974Z,100572.16
2018-09-17T18:08:05.059Z,100573.15
2018-09-17T18:10:35.016Z,100569.56
2018-09-17T18:13:05.246Z,100575.53
2018-09-17T18:15:35.232Z,100579.87
2018-09-17T18:18:05.336Z,100573.84
2018-09-17T18:20:35.403Z,100575.23
2018-09-17T18:23:05.418Z,100575.61
2018-09-17T18:25:35.547Z,100578.94
2018-09-17T18:28:05.543Z,100579.50
2018-09-17T18:30:36.337Z,100580.64
2018-09-17T18:33:06.063Z,100580.81
2018-09-17T18:35:35.691Z,100583.92
2018-09-17T18:38:05.743Z,100576.86
2018-09-17T18:40:35.790Z,100577.81
2018-09-17T18:43:05.918Z,100574.20
2018-09-17T18:45:36.023Z,100576.13
2018-09-17T18:48:06.146Z,100575.06
2018-09-17T18:50:37.130Z,100574.44
2018-09-17T18:53:08.096Z,100576.36
2018-09-17T18:55:38.171Z,100581.52
2018-09-17T18:58:08.185Z,100578.64
2018-09-17T19:00:38.210Z,100579.20
2018-09-17T19:03:08.406Z,100576.32
2018-09-17T19:05:38.421Z,100573.28
2018-09-17T19:08:08.458Z,100573.22
2018-09-17T19:10:38.418Z,100574.77
2018-09-17T19:13:09.509Z,100580.69
2018-09-17T19:15:46.565Z,100579.64
2018-09-17T19:18:18.563Z,100578.39
2018-09-17T19:20:50.000Z,100583.11
2018-09-17T19:23:25.353Z,100581.27
2018-09-17T19:25:55.638Z,100576.41
2018-09-17T19:28:30.735Z,100581.15
2018-09-17T19:31:00.628Z,100581.70
2018-09-17T19:33:30.299Z,100579.47
2018-09-17T19:36:00.175Z,100580.60
2018-09-17T19:38:34.992Z,100574.58
2018-09-17T19:41:04.976Z,100578.50
2018-09-17T19:43:35.069Z,100574.66
2018-09-17T19:46:11.126Z,100581.36
2018-09-17T19:48:41.276Z,100578.30
2018-09-17T19:51:16.385Z,100575.48
2018-09-17T19:53:46.457Z,100569.65
2018-09-17T19:56:16.521Z,100580.73
2018-09-17T19:58:51.659Z,100582.67
2018-09-17T20:01:23.895Z,100586.00
2018-09-17T20:03:53.948Z,100585.55
2018-09-17T20:06:25.994Z,100588.06
2018-09-17T20:08:56.122Z,100578.86
2018-09-17T20:11:27.219Z,100589.94
2018-09-17T20:13:57.257Z,100591.30
2018-09-17T20:16:29.086Z,100590.66
2018-09-17T20:18:59.123Z,100585.63
2018-09-17T20:21:29.161Z,100584.98
2018-09-17T20:23:59.109Z,100590.92
2018-09-17T20:26:29.182Z,100582.53
2018-09-17T20:28:59.232Z,100581.68
2018-09-17T20:31:29.290Z,100579.62
2018-09-17T20:33:59.082Z,100578.98
2018-09-17T20:36:28.813Z,100579.94
2018-09-17T20:38:58.576Z,100579.73
2018-09-17T20:41:28.654Z,100577.27
2018-09-17T20:43:58.394Z,100575.45
2018-09-17T20:46:28.251Z,100575.02
2018-09-17T20:48:58.225Z,100574.38
2018-09-17T20:51:28.281Z,100572.77
2018-09-17T20:53:58.292Z,100576.52
2018-09-17T20:56:28.391Z,100574.91
2018-09-17T20:58:58.392Z,100571.92
2018-09-17T21:01:28.695Z,100577.23
2018-09-17T21:03:58.541Z,100581.66
2018-09-17T21:06:28.615Z,100572.84
2018-09-17T21:08:58.635Z,100572.06
2018-09-17T21:11:28.675Z,100575.84
2018-09-17T21:14:00.468Z,100578.41
2018-09-17T21:16:30.451Z,100574.23
2018-09-17T21:19:00.548Z,100568.67
2018-09-17T21:21:30.526Z,100567.75
2018-09-17T21:24:00.540Z,100573.16
2018-09-17T21:26:30.514Z,100561.64
2018-09-17T21:29:00.470Z,100565.67
2018-09-17T21:31:30.407Z,100569.67
2018-09-17T21:34:00.560Z,100572.52
2018-09-17T21:36:30.574Z,100561.81
2018-09-17T21:39:00.555Z,100569.02
2018-09-17T21:41:30.590Z,100565.48
2018-09-17T21:44:00.574Z,100561.16
2018-09-17T21:46:30.598Z,100561.02
2018-09-17T21:49:00.643Z,100560.05
2018-09-17T21:51:30.662Z,100562.08
2018-09-17T21:54:00.628Z,100557.69
2018-09-17T21:56:30.608Z,100560.69
2018-09-17T21:59:00.620Z,100556.51
2018-09-17T22:01:33.102Z,100549.77
2018-09-17T22:04:03.081Z,100548.73
2018-09-17T22:06:33.102Z,100542.16
2018-09-17T22:09:03.316Z,100547.95
2018-09-17T22:11:33.307Z,100544.73
2018-09-17T22:14:03.320Z,100543.70
2018-09-17T22:16:33.311Z,100542.92
2018-09-17T22:19:03.288Z,100545.49
2018-09-17T22:21:33.286Z,100538.89
2018-09-17T22:24:03.290Z,100532.51
2018-09-17T22:26:33.296Z,100540.08
2018-09-17T22:29:03.334Z,100539.47
2018-09-17T22:31:33.222Z,100538.08
2018-09-17T22:34:03.325Z,100532.14
2018-09-17T22:36:33.290Z,100532.14
2018-09-17T22:39:03.378Z,100527.61
2018-09-17T22:41:33.399Z,100525.03
2018-09-17T22:44:03.402Z,100521.50
2018-09-17T22:46:34.040Z,100509.97
2018-09-17T22:49:04.071Z,100512.81
2018-09-17T22:51:34.019Z,100509.64
2018-09-17T22:54:03.974Z,100512.27
2018-09-17T22:56:33.966Z,100509.30
2018-09-17T22:59:03.974Z,100510.54
2018-09-17T23:01:33.909Z,100511.54
2018-09-17T23:04:03.907Z,100501.43
2018-09-17T23:06:33.958Z,100508.20
2018-09-17T23:09:04.079Z,100506.66
2018-09-17T23:11:34.070Z,100504.51
2018-09-17T23:14:04.046Z,100505.14
2018-09-17T23:16:33.998Z,100502.98
2018-09-17T23:19:04.828Z,100493.88
2018-09-17T23:21:34.497Z,100496.50
2018-09-17T23:24:04.531Z,100493.32
2018-09-17T23:26:34.467Z,100493.74
2018-09-17T23:29:04.479Z,100492.56
2018-09-17T23:31:34.485Z,100501.34
2018-09-17T23:34:04.508Z,100498.76
2018-09-17T23:36:34.451Z,100492.01
2018-09-17T23:39:08.699Z,100490.82
2018-09-17T23:41:39.027Z,100486.64
2018-09-17T23:44:08.896Z,100491.03
2018-09-17T23:46:38.891Z,100489.64
2018-09-17T23:49:08.819Z,100479.68
2018-09-17T23:51:38.787Z,100487.62
2018-09-17T23:54:08.819Z,100485.80
2018-09-17T23:56:38.829Z,100485.38
2018-09-17T23:59:08.844Z,100480.78
